»·PEaware :: SKW3134 KGPI-KLAX

SKW3134 :: KGPI-KLAX

FLIGHT INFORMATION

Flight Status: Arrived
Operator:
SkyWest Airlines
More flights by this operator :: More flights under this callsign
Pilot: Jack B. (5846)
Aircraft: CANADAIR CL-600 CRJ-200
(CRJ2)
More flights by this aircraft type
Origin: KGPI Glacier Park Intl
United States
Destination: KLAX Los Angeles Intl
United States
More flights between these airports :: More routes between these airports
Route: +KILLY1 EYCHO MLP J537 REO J7 REBRG IRNMN2
File this flight plan on PilotEdge
Remarks:
Altitude:
(Current/Filed)
300ft
Speed:
(Current/Filed)
320kts
Departed: 13-Jun-19 08:53 AM
Arrived: 13-Jun-19 11:26 AM
Distance/Time
Traveled:
882nm/2:33
Distance/Time
To Go:
Arrived

Flight Plot

Page will automatically refresh every two minutes.

Flight plan parsing failed; only flown route is shown


Map Options




Map Legend


Flown Route
Filed Route
Departure Airport
Arrival Airport
Navaid (VOR, NDB)
Fix

Horizontal Profiles

Position Reports

Time Latitude Longitude Heading Altitude Ground
Speed
13-Jun-19 08:39 48.308385 -114.253058 304 2968ft 0kts
13-Jun-19 08:40 48.308385 -114.253058 304 2968ft 0kts
13-Jun-19 08:41 48.308385 -114.253058 304 2968ft 0kts
13-Jun-19 08:42 48.308385 -114.253058 304 2968ft 0kts
13-Jun-19 08:43 48.308385 -114.253058 304 2968ft 0kts
13-Jun-19 08:44 48.308385 -114.253058 304 2968ft 0kts
13-Jun-19 08:45 48.308385 -114.253058 304 2968ft 0kts
13-Jun-19 08:46 48.308385 -114.253058 304 2968ft 0kts
13-Jun-19 08:47 48.308385 -114.253058 304 2968ft 0kts
13-Jun-19 08:48 48.308385 -114.253058 304 2968ft 0kts
13-Jun-19 08:49 48.307813 -114.256193 214 2968ft 16kts
13-Jun-19 08:50 48.301037 -114.263261 213 2964ft 30kts
13-Jun-19 08:51 48.298778 -114.267325 308 2961ft 7kts
13-Jun-19 08:52 48.315725 -114.250016 35 3003ft 159kts
13-Jun-19 08:53 48.355038 -114.213887 7 4204ft 188kts
13-Jun-19 08:54 48.395567 -114.276027 302 5547ft 244kts
13-Jun-19 08:55 48.432141 -114.362925 287 7959ft 248kts
13-Jun-19 08:56 48.406276 -114.453349 232 10015ft 249kts
13-Jun-19 08:57 48.357782 -114.525694 191 11871ft 258kts
13-Jun-19 08:58 48.284790 -114.533279 184 13595ft 267kts
13-Jun-19 08:59 48.210366 -114.541139 189 15164ft 273kts
13-Jun-19 09:00 48.138227 -114.571032 217 16552ft 275kts
13-Jun-19 09:01 48.078447 -114.641326 220 17863ft 280kts
13-Jun-19 09:02 48.017671 -114.715614 220 19067ft 285kts
13-Jun-19 09:03 47.955983 -114.791078 221 20182ft 289kts
13-Jun-19 09:04 47.901567 -114.879657 230 21188ft 293kts
13-Jun-19 09:05 47.848386 -114.972126 231 22145ft 296kts
13-Jun-19 09:06 47.794462 -115.065800 231 22998ft 301kts
13-Jun-19 09:07 47.739828 -115.161151 230 23909ft 305kts
13-Jun-19 09:08 47.684112 -115.257485 230 24748ft 310kts
13-Jun-19 09:09 47.627563 -115.354704 230 25515ft 314kts
13-Jun-19 09:10 47.570292 -115.452797 230 26214ft 317kts
13-Jun-19 09:11 47.511889 -115.552458 230 26826ft 322kts
13-Jun-19 09:12 47.449344 -115.646382 204 27321ft 329kts
13-Jun-19 09:13 47.362557 -115.692794 201 27830ft 334kts
13-Jun-19 09:14 47.274509 -115.736761 200 28333ft 336kts
13-Jun-19 09:15 47.185717 -115.780748 200 28800ft 339kts
13-Jun-19 09:16 47.096290 -115.824875 200 29236ft 341kts
13-Jun-19 09:17 47.006455 -115.869074 200 29647ft 343kts
13-Jun-19 09:18 46.915879 -115.913458 200 30047ft 344kts
13-Jun-19 09:19 46.824365 -115.958123 200 30084ft 356kts
13-Jun-19 09:20 46.728475 -116.004760 200 29967ft 372kts
13-Jun-19 09:21 46.628767 -116.053077 200 29939ft 384kts
13-Jun-19 09:22 46.526462 -116.102460 199 29939ft 394kts
13-Jun-19 09:23 46.421497 -116.153539 199 29943ft 405kts
13-Jun-19 09:24 46.313533 -116.205246 199 29942ft 414kts
13-Jun-19 09:25 46.202989 -116.257943 199 29943ft 423kts
13-Jun-19 09:26 46.090597 -116.311297 199 29942ft 431kts
13-Jun-19 09:27 45.976050 -116.365445 199 29940ft 437kts
13-Jun-19 09:28 45.861578 -116.419307 199 29940ft 443kts
13-Jun-19 09:29 45.744152 -116.474330 199 29939ft 448kts
13-Jun-19 09:30 45.625313 -116.529757 199 29939ft 452kts
13-Jun-19 09:31 45.507475 -116.584479 199 29938ft 454kts
13-Jun-19 09:32 45.387403 -116.639990 199 29975ft 456kts
13-Jun-19 09:33 45.267439 -116.695202 199 30094ft 455kts
13-Jun-19 09:34 45.148641 -116.749642 199 30101ft 457kts
13-Jun-19 09:35 45.027578 -116.804794 200 30102ft 456kts
13-Jun-19 09:36 44.908145 -116.859095 201 30098ft 450kts
13-Jun-19 09:37 44.789379 -116.912841 201 30091ft 448kts
13-Jun-19 09:38 44.671268 -116.966028 200 30035ft 447kts
13-Jun-19 09:39 44.553417 -117.018869 200 30015ft 446kts
13-Jun-19 09:40 44.435630 -117.071452 200 30017ft 445kts
13-Jun-19 09:41 44.317797 -117.124287 199 30023ft 446kts
13-Jun-19 09:42 44.199455 -117.176817 199 30022ft 448kts
13-Jun-19 09:43 44.080991 -117.229037 199 30022ft 449kts
13-Jun-19 09:44 43.961783 -117.281366 199 30021ft 450kts
13-Jun-19 09:45 43.842747 -117.333399 199 30020ft 450kts
13-Jun-19 09:46 43.723564 -117.385281 199 30019ft 451kts
13-Jun-19 09:47 43.604051 -117.437087 199 30024ft 450kts
13-Jun-19 09:48 43.485040 -117.488461 199 30048ft 450kts
13-Jun-19 09:49 43.365801 -117.539726 199 30073ft 450kts
13-Jun-19 09:50 43.246394 -117.590852 199 30075ft 451kts
13-Jun-19 09:51 43.126615 -117.641924 199 30074ft 451kts
13-Jun-19 09:52 43.006910 -117.692821 199 30074ft 452kts
13-Jun-19 09:53 42.887190 -117.743482 197 30072ft 452kts
13-Jun-19 09:54 42.767090 -117.793981 197 30074ft 454kts
13-Jun-19 09:55 42.646535 -117.844538 197 30073ft 455kts
13-Jun-19 09:56 42.528716 -117.906013 203 30074ft 455kts
13-Jun-19 09:57 42.413718 -117.976384 204 30077ft 456kts
13-Jun-19 09:58 42.298322 -118.046771 204 30074ft 457kts
13-Jun-19 09:59 42.182743 -118.117252 203 30077ft 458kts
13-Jun-19 10:00 42.066596 -118.187838 203 30075ft 458kts
13-Jun-19 10:01 41.950591 -118.257750 203 30074ft 458kts
13-Jun-19 10:02 41.834684 -118.327333 203 30073ft 457kts
13-Jun-19 10:03 41.718846 -118.396588 203 30073ft 457kts
13-Jun-19 10:04 41.603200 -118.465452 203 30082ft 457kts
13-Jun-19 10:05 41.487086 -118.534329 203 30089ft 456kts
13-Jun-19 10:06 41.371383 -118.602693 203 30100ft 455kts
13-Jun-19 10:07 41.256019 -118.670587 203 30102ft 455kts
13-Jun-19 10:08 41.140324 -118.738420 203 30100ft 456kts
13-Jun-19 10:09 41.024224 -118.806039 206 30086ft 456kts
13-Jun-19 10:10 40.908583 -118.873478 207 30072ft 458kts
13-Jun-19 10:12 40.792400 -118.940862 206 30071ft 457kts
13-Jun-19 10:13 40.676012 -119.008058 206 30070ft 455kts
13-Jun-19 10:14 40.560931 -119.074210 205 30077ft 453kts
13-Jun-19 10:15 40.446377 -119.140297 205 30104ft 451kts
13-Jun-19 10:16 40.331471 -119.205948 205 30130ft 451kts
13-Jun-19 10:17 40.216833 -119.271137 205 30151ft 451kts
13-Jun-19 10:18 40.101839 -119.336285 205 30156ft 452kts
13-Jun-19 10:19 39.986587 -119.401339 205 30155ft 452kts
13-Jun-19 10:20 39.871244 -119.466203 205 30154ft 452kts
13-Jun-19 10:21 39.756022 -119.530759 205 30154ft 453kts
13-Jun-19 10:22 39.640788 -119.595090 205 30148ft 453kts
13-Jun-19 10:23 39.524950 -119.656829 193 30118ft 456kts
13-Jun-19 10:24 39.397691 -119.652701 181 30111ft 461kts
13-Jun-19 10:25 39.269582 -119.649272 182 30102ft 462kts
13-Jun-19 10:26 39.141743 -119.646006 182 30100ft 462kts
13-Jun-19 10:27 39.013336 -119.642718 182 30099ft 462kts
13-Jun-19 10:27 38.906769 -119.640006 182 30100ft 461kts
13-Jun-19 10:29 38.757389 -119.636232 182 30099ft 460kts
13-Jun-19 10:30 38.629706 -119.633012 182 30146ft 459kts
13-Jun-19 10:30 38.523977 -119.630354 182 30204ft 459kts
13-Jun-19 10:32 38.375347 -119.626632 182 30211ft 460kts
13-Jun-19 10:33 38.247700 -119.623446 182 30210ft 461kts
13-Jun-19 10:33 38.140959 -119.620791 182 30209ft 461kts
13-Jun-19 10:35 37.991614 -119.617089 182 30208ft 462kts
13-Jun-19 10:36 37.863319 -119.613921 182 30208ft 462kts
13-Jun-19 10:36 37.756847 -119.611301 182 30207ft 462kts
13-Jun-19 10:37 37.628587 -119.608155 182 30142ft 462kts
13-Jun-19 10:39 37.478796 -119.604495 182 29985ft 463kts
13-Jun-19 10:39 37.373199 -119.601920 182 29913ft 463kts
13-Jun-19 10:40 37.244991 -119.598806 182 29912ft 461kts
13-Jun-19 10:41 37.117157 -119.595712 182 29912ft 461kts
13-Jun-19 10:42 36.989304 -119.597426 183 29911ft 459kts
13-Jun-19 10:43 36.862358 -119.599607 183 29910ft 458kts
13-Jun-19 10:44 36.735318 -119.601799 183 29909ft 457kts
13-Jun-19 10:45 36.610603 -119.603947 183 29909ft 455kts
13-Jun-19 10:46 36.484475 -119.606111 183 29908ft 454kts
13-Jun-19 10:47 36.358807 -119.608261 183 29913ft 455kts
13-Jun-19 10:48 36.232794 -119.610409 183 29913ft 455kts
13-Jun-19 10:49 36.106248 -119.612559 183 29912ft 455kts
13-Jun-19 10:50 35.980279 -119.615947 191 29900ft 451kts
13-Jun-19 10:51 35.861079 -119.659896 199 29910ft 449kts
13-Jun-19 10:52 35.743586 -119.703926 199 29913ft 449kts
13-Jun-19 10:53 35.623143 -119.743062 193 29911ft 450kts
13-Jun-19 10:54 35.500500 -119.772975 193 29910ft 451kts
13-Jun-19 10:55 35.379231 -119.802311 193 29932ft 451kts
13-Jun-19 10:56 35.256539 -119.791187 152 29935ft 469kts
13-Jun-19 10:57 35.151952 -119.696111 146 29929ft 474kts
13-Jun-19 10:58 35.047462 -119.598906 146 29908ft 475kts
13-Jun-19 10:59 34.942331 -119.501423 146 28932ft 486kts
13-Jun-19 11:00 34.835667 -119.405079 146 27527ft 472kts
13-Jun-19 11:01 34.737429 -119.317614 147 26913ft 421kts
13-Jun-19 11:02 34.646548 -119.238286 147 24231ft 390kts
13-Jun-19 11:03 34.557285 -119.161041 146 22590ft 398kts
13-Jun-19 11:04 34.470970 -119.084777 146 20581ft 385kts
13-Jun-19 11:05 34.385253 -119.010027 146 18307ft 379kts
13-Jun-19 11:06 34.301976 -118.936212 144 16737ft 368kts
13-Jun-19 11:07 34.226530 -118.867175 144 14531ft 325kts
13-Jun-19 11:08 34.159163 -118.803793 139 13004ft 295kts
13-Jun-19 11:09 34.098169 -118.737869 139 11763ft 281kts
13-Jun-19 11:10 34.042377 -118.677310 138 10720ft 252kts
13-Jun-19 11:11 34.023183 -118.590878 98 9246ft 280kts
13-Jun-19 11:12 34.014234 -118.499527 98 7975ft 256kts
13-Jun-19 11:13 34.016464 -118.418987 81 7211ft 241kts
13-Jun-19 11:14 34.026294 -118.340633 81 5462ft 233kts
13-Jun-19 11:15 34.035242 -118.263812 81 4974ft 232kts
13-Jun-19 11:16 34.044435 -118.186897 81 4974ft 231kts
13-Jun-19 11:17 34.054045 -118.111724 81 4974ft 231kts
13-Jun-19 11:18 34.024105 -118.061008 192 4989ft 227kts
13-Jun-19 11:19 33.980709 -118.113078 231 3977ft 217kts
13-Jun-19 11:20 33.957917 -118.178088 263 3465ft 219kts
13-Jun-19 11:21 33.950955 -118.248634 262 2340ft 196kts
13-Jun-19 11:22 33.944864 -118.308871 263 1341ft 168kts
13-Jun-19 11:23 33.939574 -118.360920 262 499ft 156kts
13-Jun-19 11:24 33.935171 -118.404071 262 120ft 88kts
13-Jun-19 11:25 33.935426 -118.412131 271 123ft 10kts
13-Jun-19 11:26 33.938813 -118.407800 83 123ft 33kts
13-Jun-19 11:27 33.939946 -118.396677 85 110ft 25kts
13-Jun-19 11:28 33.941290 -118.393603 305 104ft 1kts
13-Jun-19 11:29 33.941291 -118.393604 305 104ft 0kts

Navigation Log

Ident Type
Flight plan parsing failed, navigation log unavailable